Time;durP1;ratioP1;P1;durP2;ratioP2;P2;SDS_P1;SDS_P2;PMS_P1;PMS_P2;Temp;Humidity;BMP_temperature;BMP_pressure;BME280_temperature;BME280_humidity;BME280_pressure;Samples;Min_cycle;Max_cycle;Signal;HPM_P1;HPM_P2
2023/02/06 00:01:06;;;;;;;59.63;19.77;;;2.20;99.90;;;0.51;100.00;103156.72;5007387;28;21044;-72
2023/02/06 00:03:32;;;;;;;46.75;18.52;;;2.20;99.90;;;0.58;100.00;103158.13;5002586;28;20115;-73
2023/02/06 00:05:59;;;;;;;48.03;17.92;;;2.30;99.90;;;0.57;100.00;103156.38;4990466;28;20038;-73
2023/02/06 00:08:26;;;;;;;50.00;18.40;;;2.30;99.90;;;0.58;100.00;103144.69;5004101;28;20030;-73
2023/02/06 00:10:53;;;;;;;47.65;16.48;;;2.30;99.90;;;0.62;100.00;103151.59;4998828;28;20128;-73
2023/02/06 00:13:19;;;;;;;56.88;18.77;;;2.30;99.90;;;0.54;100.00;103146.66;5009221;28;20033;-73
2023/02/06 00:15:45;;;;;;;49.88;18.33;;;2.30;99.90;;;0.58;100.00;103147.38;5015681;28;20125;-73
2023/02/06 00:18:11;;;;;;;44.88;18.00;;;2.30;99.90;;;0.59;100.00;103142.84;5013950;28;20045;-72
2023/02/06 00:20:37;;;;;;;52.88;19.08;;;2.30;99.90;;;0.51;100.00;103137.91;5017913;28;20390;-73
2023/02/06 00:23:03;;;;;;;48.85;17.98;;;2.30;99.90;;;0.53;100.00;103136.00;5002045;28;20041;-72
2023/02/06 00:25:29;;;;;;;50.00;19.17;;;2.30;99.90;;;0.55;100.00;103134.97;4999989;28;20045;-72
2023/02/06 00:27:55;;;;;;;51.72;19.02;;;2.20;99.90;;;0.56;100.00;103135.84;5004259;28;20038;-73
2023/02/06 00:30:20;;;;;;;57.25;19.55;;;2.30;99.90;;;0.57;100.00;103137.59;4993870;28;20370;-73
2023/02/06 00:32:46;;;;;;;45.25;17.15;;;2.30;99.90;;;0.54;100.00;103138.63;4999211;28;20494;-73
2023/02/06 00:35:12;;;;;;;55.97;18.63;;;2.30;99.90;;;0.57;100.00;103142.97;5005302;28;20034;-73
2023/02/06 00:37:39;;;;;;;44.05;16.77;;;2.30;99.90;;;0.56;100.00;103128.63;4999926;28;20117;-72
2023/02/06 00:40:06;;;;;;;47.83;16.63;;;2.20;99.90;;;0.55;100.00;103140.34;5002372;28;20027;-73
2023/02/06 00:42:32;;;;;;;47.13;17.57;;;2.30;99.90;;;0.51;100.00;103140.59;4991667;28;20069;-73
2023/02/06 00:44:58;;;;;;;52.75;18.27;;;2.20;99.90;;;0.48;100.00;103141.66;4991899;28;20308;-73
2023/02/06 00:47:23;;;;;;;50.25;17.75;;;2.20;99.90;;;0.43;100.00;103133.84;5018602;28;20053;-73
2023/02/06 00:49:49;;;;;;;50.83;18.60;;;2.20;99.90;;;0.34;100.00;103134.41;5007967;28;20096;-73
2023/02/06 00:52:15;;;;;;;50.35;17.02;;;2.20;99.90;;;0.41;100.00;103130.41;4997746;28;20101;-73
2023/02/06 00:54:40;;;;;;;49.13;17.35;;;2.10;99.90;;;0.45;100.00;103135.59;5005654;28;20086;-73
2023/02/06 00:57:06;;;;;;;46.00;16.42;;;2.20;99.90;;;0.41;100.00;103138.47;4989353;28;20037;-73
2023/02/06 00:59:32;;;;;;;42.55;16.55;;;2.20;99.90;;;0.40;100.00;103131.34;4991340;28;20042;-73
2023/02/06 01:01:58;;;;;;;53.80;16.73;;;2.10;99.90;;;0.41;100.00;103130.41;5004153;28;20065;-72
2023/02/06 01:04:23;;;;;;;46.10;16.02;;;2.10;99.90;;;0.41;100.00;103133.09;5008789;28;20041;-73
2023/02/06 01:06:49;;;;;;;43.35;17.35;;;2.10;99.90;;;0.36;100.00;103143.22;4995467;28;20048;-73
2023/02/06 01:09:15;;;;;;;41.63;15.85;;;2.10;99.90;;;0.42;100.00;103150.94;4997526;28;20030;-73
2023/02/06 01:11:40;;;;;;;42.28;16.17;;;2.10;99.90;;;0.44;100.00;103156.22;5015007;28;20034;-73
2023/02/06 01:14:06;;;;;;;49.20;17.88;;;2.10;99.90;;;0.45;100.00;103159.75;4995240;28;20042;-72
2023/02/06 01:16:32;;;;;;;45.05;16.52;;;2.10;99.90;;;0.50;100.00;103161.25;5007112;28;20030;-73
2023/02/06 01:18:57;;;;;;;39.65;16.23;;;2.20;99.90;;;0.51;100.00;103162.09;5007762;28;20092;-73
2023/02/06 01:21:24;;;;;;;43.78;15.98;;;2.20;99.90;;;0.51;100.00;103170.16;4997628;28;20034;-73
2023/02/06 01:23:53;;;;;;;47.00;18.15;;;2.20;99.90;;;0.47;100.00;103166.78;5005261;28;20037;-74
2023/02/06 01:26:23;;;;;;;46.97;19.00;;;2.20;99.90;;;0.41;100.00;103168.00;5000049;28;20046;-73
2023/02/06 01:28:49;;;;;;;40.63;15.77;;;2.20;99.90;;;0.42;100.00;103172.41;5000519;28;20053;-74
2023/02/06 01:31:23;;;;;;;53.05;18.83;;;2.10;99.90;;;0.35;100.00;103168.38;5017554;28;20046;-73
2023/02/06 01:33:50;;;;;;;39.03;16.77;;;2.10;99.90;;;0.35;100.00;103163.00;5009437;28;20076;-74
2023/02/06 01:36:18;;;;;;;44.10;18.47;;;2.10;99.90;;;0.39;100.00;103164.53;4998532;28;20034;-74
2023/02/06 01:38:44;;;;;;;44.28;18.20;;;2.10;99.90;;;0.41;100.00;103167.16;5004326;28;20038;-74
2023/02/06 01:41:11;;;;;;;47.47;19.08;;;2.10;99.90;;;0.43;100.00;103163.41;5008172;28;20053;-74
2023/02/06 01:43:42;;;;;;;48.03;18.05;;;2.10;99.90;;;0.38;100.00;103162.81;5005167;28;20042;-74
2023/02/06 01:46:08;;;;;;;47.00;19.55;;;2.10;99.90;;;0.42;100.00;103159.00;5002598;28;20046;-74
2023/02/06 01:48:42;;;;;;;43.95;18.52;;;2.10;99.90;;;0.39;100.00;103151.09;5000435;28;20030;-74
2023/02/06 01:51:16;;;;;;;48.78;18.77;;;2.10;99.90;;;0.47;100.00;103152.47;5008534;28;20034;-73
2023/02/06 01:53:47;;;;;;;48.70;19.60;;;2.10;99.90;;;0.44;100.00;103150.84;5017709;28;20038;-73
2023/02/06 01:56:18;;;;;;;52.17;18.25;;;2.20;99.90;;;0.40;100.00;103154.69;5007917;28;20037;-74
2023/02/06 01:58:53;;;;;;;54.25;19.23;;;2.10;99.90;;;0.40;100.00;103143.94;5004648;28;20038;-75
2023/02/06 02:01:20;;;;;;;58.97;21.20;;;2.10;99.90;;;0.37;100.00;103144.97;5001354;28;20103;-75
2023/02/06 02:03:51;;;;;;;58.60;21.58;;;2.10;99.90;;;0.37;100.00;103155.72;4999264;28;20061;-75
2023/02/06 02:06:25;;;;;;;57.75;21.23;;;2.10;99.90;;;0.39;100.00;103148.44;5003147;28;20037;-74
2023/02/06 02:08:55;;;;;;;58.53;23.42;;;2.10;99.90;;;0.37;100.00;103155.72;4997540;28;20078;-74
2023/02/06 02:11:28;;;;;;;58.45;21.67;;;2.10;99.90;;;0.36;100.00;103153.09;5004228;28;20034;-73
2023/02/06 02:13:55;;;;;;;59.92;22.42;;;2.10;99.90;;;0.38;100.00;103154.75;5011050;28;20040;-73
2023/02/06 02:16:58;;;;;;;60.55;22.35;;;2.10;99.90;;;0.47;100.00;103144.41;4996397;28;20034;-73
2023/02/06 02:19:59;;;;;;;61.42;23.45;;;2.20;99.90;;;0.42;100.00;103150.09;5004249;28;20429;-73
2023/02/06 02:22:43;;;;;;;61.22;23.80;;;2.10;99.90;;;0.34;100.00;103161.25;4994721;28;20042;-73
2023/02/06 02:25:52;;;;;;;56.50;20.50;;;2.10;99.90;;;0.37;100.00;103163.75;5008285;28;20045;-73
2023/02/06 02:28:53;;;;;;;55.22;21.02;;;2.10;99.90;;;0.38;100.00;103159.25;5005262;28;20038;-73
2023/02/06 02:32:11;;;;;;;51.45;21.20;;;2.10;99.90;;;0.29;100.00;103171.41;5008465;28;20482;-73
2023/02/06 02:35:04;;;;;;;54.40;19.58;;;2.10;99.90;;;0.34;100.00;103172.00;5009878;28;20041;-74
2023/02/06 02:37:48;;;;;;;55.35;22.77;;;2.10;99.90;;;0.30;100.00;103170.44;4993993;28;20041;-74
2023/02/06 02:40:30;;;;;;;48.97;19.48;;;2.00;99.90;;;0.31;100.00;103171.28;4995852;28;20042;-74
2023/02/06 02:43:50;;;;;;;44.17;19.13;;;2.00;99.90;;;0.28;100.00;103169.66;5005669;28;20060;-74
2023/02/06 02:46:31;;;;;;;52.88;21.17;;;2.00;99.90;;;0.21;100.00;103177.19;5016607;28;20053;-74
2023/02/06 02:49:07;;;;;;;54.65;22.08;;;2.00;99.90;;;0.07;100.00;103164.56;5003302;28;20049;-74
2023/02/06 02:51:37;;;;;;;47.17;19.23;;;1.90;99.90;;;-0.01;100.00;103164.09;5007977;28;20116;-74
2023/02/06 02:54:02;;;;;;;48.22;21.02;;;1.80;99.90;;;0.01;100.00;103159.53;4997594;28;20026;-73
2023/02/06 02:56:32;;;;;;;53.60;20.40;;;1.80;99.90;;;-0.07;100.00;103167.13;5008410;28;20029;-74
2023/02/06 02:59:26;;;;;;;45.78;19.85;;;1.70;99.90;;;-0.13;100.00;103168.34;5011229;28;20437;-74
2023/02/06 03:02:01;;;;;;;46.15;18.10;;;1.70;99.90;;;-0.18;100.00;103162.34;5005609;28;20072;-74
2023/02/06 03:04:58;;;;;;;42.83;18.60;;;1.60;99.90;;;-0.24;100.00;103176.97;4997757;28;20505;-75
2023/02/06 03:08:05;;;;;;;45.47;19.33;;;1.60;99.90;;;-0.37;100.00;103175.91;5009388;28;20033;-73
2023/02/06 03:10:57;;;;;;;45.45;18.40;;;1.50;99.90;;;-0.23;100.00;103178.72;5006275;28;20429;-73
2023/02/06 03:13:40;;;;;;;44.30;19.55;;;1.50;99.90;;;-0.28;100.00;103167.34;4996076;28;20057;-74
2023/02/06 03:16:37;;;;;;;44.53;19.58;;;1.50;99.90;;;-0.25;100.00;103169.00;5019356;28;20437;-74
2023/02/06 03:19:21;;;;;;;46.42;19.83;;;1.50;99.90;;;-0.36;100.00;103154.38;5001653;28;20088;-73
2023/02/06 03:21:47;;;;;;;47.25;18.35;;;1.50;99.90;;;-0.40;100.00;103157.28;4993128;28;20027;-74
2023/02/06 03:24:19;;;;;;;52.17;17.60;;;1.40;99.90;;;-0.40;100.00;103162.66;5002144;28;20030;-73
2023/02/06 03:26:52;;;;;;;44.05;18.98;;;1.40;99.90;;;-0.41;100.00;103142.13;5006619;28;20041;-73
2023/02/06 03:29:19;;;;;;;43.42;17.90;;;1.30;99.90;;;-0.40;100.00;103157.28;5001776;28;20046;-74
2023/02/06 03:32:04;;;;;;;41.80;19.13;;;1.30;99.90;;;-0.42;100.00;103153.81;4998484;28;20218;-74
2023/02/06 03:34:59;;;;;;;42.95;16.70;;;1.30;99.90;;;-0.45;100.00;103160.22;5011114;28;20041;-74
2023/02/06 03:37:27;;;;;;;40.13;17.42;;;1.30;99.90;;;-0.46;100.00;103164.72;5000343;28;20440;-74
2023/02/06 03:39:54;;;;;;;;;;;1.30;99.90;;;-0.46;100.00;103161.16;5014609;28;20491;-74
2023/02/06 03:42:21;;;;;;;45.80;18.38;;;1.30;99.90;;;-0.57;100.00;103150.16;5003862;28;19917;-74
2023/02/06 03:45:02;;;;;;;38.67;15.93;;;1.20;99.90;;;-0.60;100.00;103152.03;4998626;28;20490;-74
2023/02/06 03:47:30;;;;;;;44.88;18.05;;;1.20;99.90;;;-0.67;100.00;103141.72;5003729;28;20038;-74
2023/02/06 03:49:59;;;;;;;40.78;18.15;;;1.10;99.90;;;-0.70;100.00;103136.53;5008687;28;20045;-74
2023/02/06 03:52:35;;;;;;;42.63;18.48;;;1.10;99.90;;;-0.75;100.00;103140.31;5001564;28;20046;-73
2023/02/06 03:55:10;;;;;;;47.72;18.83;;;1.00;99.90;;;-0.86;100.00;103145.38;5007198;28;20065;-73
2023/02/06 03:57:39;;;;;;;41.58;17.63;;;0.90;99.90;;;-0.96;100.00;103152.16;5005836;28;20042;-73
2023/02/06 04:00:06;;;;;;;43.78;17.83;;;0.80;99.90;;;-0.96;100.00;103144.13;4999833;28;20038;-74
2023/02/06 04:02:39;;;;;;;39.63;16.65;;;0.80;99.90;;;-0.92;100.00;103140.34;5005673;28;20116;-74
2023/02/06 04:05:05;;;;;;;37.97;16.75;;;0.80;99.90;;;-0.96;100.00;103134.25;4998969;28;20077;-73
2023/02/06 04:07:34;;;;;;;39.75;19.00;;;0.80;99.90;;;-0.98;100.00;103127.25;5006651;28;20065;-73
2023/02/06 04:10:00;;;;;;;42.67;17.42;;;0.80;99.90;;;-0.94;100.00;103131.50;4996136;28;20042;-73
2023/02/06 04:12:26;;;;;;;35.50;14.13;;;0.80;99.90;;;-0.96;100.00;103123.53;4996494;28;20096;-73
2023/02/06 04:14:52;;;;;;;41.20;17.02;;;0.80;99.90;;;-0.93;100.00;103127.88;5002218;28;20480;-73
2023/02/06 04:17:18;;;;;;;39.15;17.88;;;0.80;99.90;;;-0.97;100.00;103128.97;5006316;28;20038;-72
2023/02/06 04:19:44;;;;;;;40.28;16.67;;;0.80;99.90;;;-1.13;100.00;103123.56;5002742;28;20041;-72
2023/02/06 04:22:14;;;;;;;35.42;15.90;;;0.70;99.90;;;-1.11;100.00;103127.88;5000563;28;20075;-73
2023/02/06 04:24:41;;;;;;;39.45;17.50;;;0.60;99.90;;;-1.19;100.00;103130.97;5001919;28;20042;-75
2023/02/06 04:27:11;;;;;;;37.65;15.95;;;0.60;99.90;;;-1.20;100.00;103123.00;5005305;28;20386;-72
2023/02/06 04:29:37;;;;;;;39.00;16.58;;;0.60;99.90;;;-1.14;100.00;103113.78;5005502;28;20065;-72
2023/02/06 04:32:04;;;;;;;37.97;15.88;;;0.60;99.90;;;-1.12;100.00;103114.56;5005498;28;20068;-74
2023/02/06 04:34:31;;;;;;;43.05;16.50;;;0.60;99.90;;;-1.23;100.00;103107.94;5014416;28;20429;-72
2023/02/06 04:36:58;;;;;;;44.30;16.63;;;0.60;99.90;;;-1.22;100.00;103111.50;5005794;28;20060;-72
2023/02/06 04:39:25;;;;;;;40.53;16.55;;;0.50;99.90;;;-1.29;100.00;103118.13;5006396;28;20029;-72
2023/02/06 04:41:51;;;;;;;42.22;15.90;;;0.50;99.90;;;-1.34;100.00;103116.50;5009766;28;20034;-72
2023/02/06 04:44:17;;;;;;;41.72;17.15;;;0.50;99.90;;;-1.33;100.00;103120.06;5000694;28;20038;-72
2023/02/06 04:46:44;;;;;;;46.92;17.48;;;0.40;99.90;;;-1.35;100.00;103113.94;5001257;28;20057;-72
2023/02/06 04:49:10;;;;;;;38.85;15.95;;;0.50;99.90;;;-1.45;100.00;103094.78;5004567;28;20049;-71
2023/02/06 04:51:36;;;;;;;41.58;17.40;;;0.40;99.90;;;-1.39;100.00;103121.25;5007614;28;20045;-71
2023/02/06 04:54:03;;;;;;;45.42;17.75;;;0.40;99.90;;;-1.42;100.00;103112.50;4996666;28;20042;-72
2023/02/06 04:56:29;;;;;;;37.87;15.77;;;0.40;99.90;;;-1.42;100.00;103115.19;4990344;28;20038;-71
2023/02/06 04:58:55;;;;;;;37.55;14.90;;;0.40;99.90;;;-1.52;100.00;103106.75;4993468;28;20038;-71
2023/02/06 05:01:21;;;;;;;38.22;16.10;;;0.30;99.90;;;-1.56;100.00;103106.03;4998807;28;20057;-71
2023/02/06 05:03:48;;;;;;;44.92;17.65;;;0.30;99.90;;;-1.63;100.00;103118.84;5006001;28;20402;-71
2023/02/06 05:06:14;;;;;;;49.33;18.63;;;0.20;99.90;;;-1.58;100.00;103109.75;4988953;28;20030;-71
2023/02/06 05:08:40;;;;;;;46.83;17.25;;;0.20;99.90;;;-1.54;100.00;103106.81;5009314;28;20038;-70
2023/02/06 05:11:06;;;;;;;48.78;19.30;;;0.20;99.90;;;-1.52;100.00;103104.06;5013809;28;20037;-71
2023/02/06 05:13:33;;;;;;;41.83;17.75;;;0.20;99.90;;;-1.55;100.00;103105.06;5003943;28;20038;-71
2023/02/06 05:16:11;;;;;;;44.58;17.10;;;0.30;99.90;;;-1.60;100.00;103107.97;5003619;28;20038;-71
2023/02/06 05:18:37;;;;;;;37.58;15.02;;;0.20;99.90;;;-1.58;100.00;103117.78;5001267;28;20063;-71
2023/02/06 05:21:04;;;;;;;44.50;16.77;;;0.20;99.90;;;-1.71;100.00;103090.75;5009939;28;20142;-71
2023/02/06 05:23:31;;;;;;;44.70;15.83;;;0.20;99.90;;;-1.60;100.00;103126.72;5023925;28;20038;-72
2023/02/06 05:25:58;;;;;;;44.75;17.17;;;0.20;99.90;;;-1.69;100.00;103126.31;5013271;28;20310;-71
2023/02/06 05:28:24;;;;;;;41.08;16.08;;;0.20;99.90;;;-1.65;100.00;103125.22;5008117;28;21311;-70
2023/02/06 05:30:50;;;;;;;46.67;18.38;;;0.10;99.90;;;-1.69;100.00;103120.97;5011552;28;20045;-71
2023/02/06 05:33:16;;;;;;;48.65;19.52;;;0.10;99.90;;;-1.77;100.00;103126.69;5011639;28;20045;-71
2023/02/06 05:35:41;;;;;;;42.35;16.88;;;0.10;99.90;;;-1.69;100.00;103137.03;5012502;28;20049;-71
2023/02/06 05:38:07;;;;;;;51.03;18.48;;;0.10;99.90;;;-1.66;100.00;103127.03;5010401;28;20038;-71
2023/02/06 05:40:33;;;;;;;57.45;18.25;;;0.20;99.90;;;-1.65;100.00;103123.41;5007332;28;20454;-71
2023/02/06 05:42:59;;;;;;;54.30;20.13;;;0.20;99.90;;;-1.65;100.00;103133.25;5012435;28;20086;-71
2023/02/06 05:45:24;;;;;;;59.53;18.30;;;0.20;99.90;;;-1.63;100.00;103134.91;5006017;28;20057;-71
2023/02/06 05:47:52;;;;;;;54.72;19.35;;;0.20;99.90;;;-1.64;100.00;103133.16;5007808;28;20039;-71
2023/02/06 05:50:18;;;;;;;55.65;18.33;;;0.20;99.90;;;-1.62;100.00;103136.63;5003966;28;20034;-71
2023/02/06 05:52:43;;;;;;;46.50;16.33;;;0.20;99.90;;;-1.67;100.00;103138.69;5008415;28;20046;-71
2023/02/06 05:55:09;;;;;;;59.03;17.42;;;0.20;99.90;;;-1.65;100.00;103136.78;5013437;28;20084;-71
2023/02/06 05:57:35;;;;;;;49.38;19.45;;;0.10;99.90;;;-1.66;100.00;103136.88;5009745;28;20409;-73
2023/02/06 06:00:02;;;;;;;44.83;17.67;;;0.10;99.90;;;-1.58;100.00;103149.91;5008652;28;20474;-72
2023/02/06 06:02:37;;;;;;;45.55;17.35;;;0.20;99.90;;;-1.50;100.00;103148.56;5002123;28;20127;-73
2023/02/06 06:05:03;;;;;;;49.80;18.85;;;0.30;99.90;;;-1.52;100.00;103146.91;5002950;28;20042;-73
2023/02/06 06:07:29;;;;;;;46.13;18.55;;;0.30;99.90;;;-1.46;100.00;103147.50;4994761;28;20035;-72
2023/02/06 06:09:55;;;;;;;44.40;17.98;;;0.40;99.90;;;-1.42;100.00;103148.19;5005708;28;20046;-72
2023/02/06 06:12:21;;;;;;;53.35;18.90;;;0.30;99.90;;;-1.40;100.00;103157.00;5007592;28;20058;-72
2023/02/06 06:14:47;;;;;;;48.90;17.08;;;0.40;99.90;;;-1.49;100.00;103155.66;5004663;28;20528;-73
2023/02/06 06:17:13;;;;;;;48.00;17.15;;;0.30;99.90;;;-1.46;100.00;103163.56;5005218;28;20045;-72
2023/02/06 06:19:38;;;;;;;42.90;15.88;;;0.30;99.90;;;-1.43;100.00;103159.00;5003034;28;20049;-72
2023/02/06 06:22:04;;;;;;;45.08;16.30;;;0.30;99.90;;;-1.49;100.00;103178.91;5006612;28;20044;-72
2023/02/06 06:24:30;;;;;;;40.58;14.52;;;0.30;99.90;;;-1.47;100.00;103168.97;5004767;28;20049;-72
2023/02/06 06:26:58;;;;;;;34.25;13.90;;;0.30;99.90;;;-1.45;100.00;103177.78;5008196;28;20394;-72
2023/02/06 06:29:26;;;;;;;34.28;13.50;;;0.30;99.90;;;-1.42;100.00;103176.78;4991895;28;20085;-72
2023/02/06 06:31:52;;;;;;;36.83;14.10;;;0.30;99.90;;;-1.46;100.00;103176.06;5000103;28;20034;-72
2023/02/06 06:34:18;;;;;;;39.17;14.82;;;0.30;99.90;;;-1.43;100.00;103185.78;5000881;28;20038;-72
2023/02/06 06:36:44;;;;;;;37.53;14.65;;;0.30;99.90;;;-1.46;100.00;103193.00;5011793;28;20484;-72
2023/02/06 06:39:09;;;;;;;37.05;14.60;;;0.30;99.90;;;-1.45;100.00;103191.19;5005772;28;20049;-72
2023/02/06 06:41:35;;;;;;;36.45;14.00;;;0.30;99.90;;;-1.47;100.00;103191.25;5010329;28;20038;-71
2023/02/06 06:44:01;;;;;;;36.10;14.60;;;0.30;99.90;;;-1.51;100.00;103187.00;5003253;28;20046;-71
2023/02/06 06:46:27;;;;;;;39.88;14.48;;;0.30;99.90;;;-1.49;100.00;103193.13;5011280;28;20699;-71
2023/02/06 06:48:52;;;;;;;34.10;13.88;;;0.30;99.90;;;-1.47;100.00;103203.78;5006505;28;20038;-72
2023/02/06 06:51:19;;;;;;;37.55;14.43;;;0.30;99.90;;;-1.50;100.00;103204.78;5008800;28;20462;-71
2023/02/06 06:53:45;;;;;;;43.42;15.00;;;0.30;99.90;;;-1.48;100.00;103207.41;5002322;28;20045;-71
2023/02/06 06:56:13;;;;;;;38.65;15.63;;;0.30;99.90;;;-1.45;100.00;103202.78;5004935;28;20432;-71
2023/02/06 06:58:40;;;;;;;;;;;0.30;99.90;;;-1.55;100.00;103203.31;5012385;28;20429;-71
2023/02/06 07:01:07;;;;;;;40.72;15.15;;;0.30;99.90;;;-1.55;100.00;103197.94;5005495;28;19924;-71
2023/02/06 07:03:33;;;;;;;45.03;14.27;;;0.20;99.90;;;-1.57;100.00;103192.66;5002524;28;20046;-72
2023/02/06 07:05:59;;;;;;;40.58;15.15;;;0.20;99.90;;;-1.54;100.00;103199.69;5004304;28;20052;-71
2023/02/06 07:08:28;;;;;;;36.17;14.13;;;0.20;99.90;;;-1.52;100.00;103195.97;5002848;28;20486;-71
2023/02/06 07:10:55;;;;;;;39.22;15.30;;;0.20;99.90;;;-1.47;100.00;103196.59;5004714;28;20485;-72
2023/02/06 07:13:21;;;;;;;37.13;15.43;;;0.20;99.90;;;-1.42;100.00;103193.72;5003085;28;20077;-71
2023/02/06 07:15:46;;;;;;;38.55;14.82;;;0.30;99.90;;;-1.36;100.00;103188.03;4999373;28;20520;-71
2023/02/06 07:18:12;;;;;;;40.28;15.50;;;0.40;99.90;;;-1.33;100.00;103187.91;5004232;28;20030;-71
2023/02/06 07:20:38;;;;;;;39.67;15.10;;;0.40;99.90;;;-1.31;100.00;103180.66;5005789;28;20464;-72
2023/02/06 07:23:05;;;;;;;34.95;14.25;;;0.40;99.90;;;-1.25;100.00;103194.69;5005785;28;20057;-71
2023/02/06 07:25:31;;;;;;;41.47;15.32;;;0.50;99.90;;;-1.24;100.00;103196.44;5006446;28;20041;-71
2023/02/06 07:27:56;;;;;;;44.45;14.52;;;0.50;99.90;;;-1.14;100.00;103204.88;5002370;28;20116;-71
2023/02/06 07:30:22;;;;;;;32.35;14.00;;;0.50;99.90;;;-1.14;100.00;103199.53;5007257;28;20482;-72
2023/02/06 07:32:48;;;;;;;32.72;14.70;;;0.60;99.90;;;-1.20;100.00;103209.56;5001246;28;20089;-71
2023/02/06 07:35:14;;;;;;;39.47;14.35;;;0.60;99.90;;;-1.08;100.00;103224.19;5013789;28;20042;-72
2023/02/06 07:37:40;;;;;;;31.13;13.55;;;0.70;99.90;;;-1.08;100.00;103224.19;5005382;28;20042;-72
2023/02/06 07:40:06;;;;;;;36.45;13.32;;;0.70;99.90;;;-0.94;100.00;103217.28;5015381;28;20116;-71
2023/02/06 07:42:32;;;;;;;33.13;13.80;;;0.80;99.90;;;-0.91;100.00;103230.50;5004854;28;20045;-72
2023/02/06 07:45:07;;;;;;;32.03;12.95;;;0.80;99.90;;;-0.82;100.00;103226.50;5022512;28;20042;-72
2023/02/06 07:47:33;;;;;;;34.42;13.68;;;0.90;99.90;;;-0.86;100.00;103231.13;5004332;28;20496;-72
2023/02/06 07:49:58;;;;;;;30.67;12.82;;;0.90;99.90;;;-1.00;100.00;103237.19;5001785;28;20046;-72
2023/02/06 07:52:24;;;;;;;28.15;11.43;;;0.90;99.90;;;-0.82;100.00;103238.06;5005291;28;20039;-72
2023/02/06 07:54:50;;;;;;;35.83;12.93;;;1.00;99.90;;;-0.78;100.00;103237.00;5002698;28;20049;-72
2023/02/06 07:57:15;;;;;;;39.63;14.52;;;1.00;99.90;;;-0.71;100.00;103231.31;5002744;28;20378;-73
2023/02/06 07:59:41;;;;;;;32.90;14.43;;;1.10;99.90;;;-0.60;100.00;103228.94;5003632;28;20048;-73
2023/02/06 08:02:10;;;;;;;39.17;14.50;;;1.30;99.90;;;-0.50;100.00;103232.91;4993681;28;20030;-73
2023/02/06 08:04:36;;;;;;;42.03;15.68;;;1.30;99.90;;;-0.36;100.00;103242.00;5019018;28;20045;-73
2023/02/06 08:07:04;;;;;;;36.45;15.38;;;1.40;99.90;;;-0.33;100.00;103242.72;5002162;28;20042;-73
2023/02/06 08:09:30;;;;;;;39.25;14.52;;;1.50;99.90;;;-0.15;100.00;103238.19;5004621;28;20132;-73
2023/02/06 08:11:56;;;;;;;33.42;14.23;;;1.60;99.90;;;-0.17;100.00;103247.25;4985633;28;20244;-72
2023/02/06 08:14:23;;;;;;;37.92;15.05;;;1.60;99.90;;;-0.12;100.00;103233.59;5006507;28;20117;-73
2023/02/06 08:16:49;;;;;;;38.00;14.65;;;1.70;99.90;;;-0.21;100.00;103229.59;4999932;28;20513;-73
2023/02/06 08:19:15;;;;;;;35.25;13.70;;;1.60;99.90;;;-0.12;100.00;103228.25;5005278;28;20108;-73
2023/02/06 08:21:41;;;;;;;48.45;15.02;;;1.70;99.90;;;0.15;100.00;103225.88;5009273;28;20482;-73
2023/02/06 08:24:10;;;;;;;34.88;14.70;;;1.90;99.90;;;0.33;100.00;103228.47;5002533;28;20034;-73
2023/02/06 08:26:37;;;;;;;33.75;14.10;;;2.10;99.90;;;0.18;100.00;103231.06;5005830;28;20071;-73
2023/02/06 08:29:05;;;;;;;47.40;16.88;;;2.10;99.90;;;0.30;100.00;103234.91;5007457;28;20026;-74
2023/02/06 08:31:39;;;;;;;;;;;2.10;99.90;;;0.10;100.00;103227.94;5005865;28;20096;-73
2023/02/06 08:34:08;;;;;;;45.13;17.48;;;2.00;99.90;;;0.10;100.00;103215.38;4999310;28;19917;-73
2023/02/06 08:36:34;;;;;;;44.33;17.58;;;1.90;99.90;;;0.05;100.00;103222.84;5003566;28;20030;-73
2023/02/06 08:39:03;;;;;;;43.20;17.05;;;1.90;99.90;;;0.01;100.00;103223.06;5003972;28;20046;-73
2023/02/06 08:41:32;;;;;;;51.80;18.55;;;1.80;99.90;;;-0.24;100.00;103221.72;5004729;28;20042;-72
2023/02/06 08:44:01;;;;;;;46.53;18.23;;;1.80;99.90;;;-0.39;100.00;103220.72;5007116;28;20045;-72
2023/02/06 08:46:30;;;;;;;50.00;18.98;;;1.60;99.90;;;-0.21;100.00;103219.75;5000459;28;20034;-72
2023/02/06 08:49:15;;;;;;;44.42;16.92;;;1.60;99.90;;;-0.16;100.00;103214.09;5000256;28;20058;-72
2023/02/06 08:51:41;;;;;;;41.60;17.75;;;1.70;99.90;;;-0.01;100.00;103215.09;5003943;28;20078;-71
2023/02/06 08:54:12;;;;;;;45.80;17.38;;;1.80;99.90;;;-0.06;100.00;103217.16;5010094;28;20092;-71
2023/02/06 08:56:38;;;;;;;44.08;17.33;;;1.80;99.90;;;0.07;100.00;103214.69;4997446;28;20100;-71
2023/02/06 08:59:06;;;;;;;43.97;18.05;;;1.90;99.90;;;0.25;100.00;103212.78;5006000;28;20030;-71
2023/02/06 09:01:35;;;;;;;42.40;17.75;;;2.10;99.90;;;0.58;100.00;103206.47;5009381;28;20036;-71
2023/02/06 09:04:05;;;;;;;44.17;16.65;;;2.40;99.90;;;0.89;100.00;103196.63;5008512;28;20366;-71
2023/02/06 09:06:34;;;;;;;41.42;16.42;;;2.60;99.90;;;1.00;100.00;103188.78;5004714;28;20034;-72
2023/02/06 09:09:00;;;;;;;38.22;16.50;;;2.80;99.90;;;1.12;100.00;103183.66;5002131;28;20038;-71
2023/02/06 09:11:27;;;;;;;40.40;15.75;;;3.10;99.90;;;1.11;100.00;103179.22;5000559;28;20042;-71
2023/02/06 09:13:59;;;;;;;35.40;15.40;;;3.20;99.90;;;1.53;100.00;103184.78;5007650;28;20053;-71
2023/02/06 09:16:27;;;;;;;35.65;15.48;;;3.40;99.90;;;1.97;100.00;103183.78;5004188;28;20072;-71
2023/02/06 09:18:54;;;;;;;39.47;14.52;;;3.80;99.90;;;1.77;100.00;103179.69;4994989;28;20548;-72
2023/02/06 09:21:24;;;;;;;34.42;14.77;;;3.80;99.90;;;1.78;100.00;103186.78;5006961;28;20050;-72
2023/02/06 09:24:00;;;;;;;36.05;15.43;;;3.90;99.90;;;1.47;100.00;103169.88;4991252;28;20531;-71
2023/02/06 09:26:32;;;;;;;36.08;13.20;;;3.60;99.90;;;1.41;100.00;103167.56;5002584;28;20042;-71
2023/02/06 09:29:01;;;;;;;32.60;13.40;;;3.50;99.90;;;1.62;100.00;103177.97;5001682;28;20054;-71
2023/02/06 09:31:32;;;;;;;33.33;11.98;;;3.50;99.90;;;1.66;100.00;103187.56;4999986;28;20108;-71
2023/02/06 09:34:01;;;;;;;25.65;10.95;;;3.60;99.90;;;1.65;100.00;103180.47;5000301;28;20030;-71
2023/02/06 09:36:29;;;;;;;30.80;10.77;;;3.70;99.90;;;1.64;100.00;103186.81;4999047;28;20041;-71
2023/02/06 09:38:56;;;;;;;32.53;11.00;;;3.70;99.90;;;2.29;100.00;103185.38;5001654;28;20144;-71
2023/02/06 09:41:40;;;;;;;29.67;10.90;;;4.10;99.90;;;2.72;100.00;103187.06;5005106;28;20120;-71
2023/02/06 09:44:35;;;;;;;22.13;9.13;;;4.70;99.90;;;2.65;100.00;103183.06;5003729;28;20142;-71
2023/02/06 09:47:29;;;;;;;27.48;8.98;;;4.80;99.90;;;2.25;100.00;103171.25;5001354;28;20046;-72
2023/02/06 09:50:04;;;;;;;27.73;10.80;;;4.60;99.90;;;2.40;100.00;103182.00;5004493;28;20045;-72
2023/02/06 09:53:05;;;;;;;20.70;8.65;;;4.60;99.90;;;2.46;100.00;103176.19;4987903;28;20440;-72
2023/02/06 09:55:44;;;;;;;24.45;9.35;;;4.80;99.90;;;2.46;100.00;103186.97;5002957;28;20385;-72
2023/02/06 09:58:48;;;;;;;23.10;8.88;;;4.70;99.90;;;2.46;100.00;103189.66;5002248;28;20049;-72
2023/02/06 10:01:24;;;;;;;19.55;8.57;;;4.50;99.90;;;3.12;100.00;103188.91;5003727;28;20064;-72
2023/02/06 10:04:51;;;;;;;24.65;8.68;;;4.90;99.90;;;3.33;100.00;103175.78;5001761;28;20073;-72
2023/02/06 10:07:45;;;;;;;18.77;7.80;;;5.30;99.90;;;3.40;100.00;103176.22;5012512;28;20473;-72
2023/02/06 10:10:33;;;;;;;19.90;6.60;;;5.70;99.90;;;3.83;100.00;103169.59;5006018;28;20122;-72
2023/02/06 10:13:19;;;;;;;21.65;7.07;;;6.20;99.90;;;3.66;100.00;103173.50;5004055;28;20038;-73
2023/02/06 10:15:51;;;;;;;22.00;7.35;;;6.00;99.90;;;4.51;96.39;103170.06;5020302;28;20047;-72
2023/02/06 10:18:35;;;;;;;22.55;7.03;;;6.60;99.90;;;5.22;87.87;103150.28;4990564;28;20129;-72